sensor_id;sensor_type;location;lat;lon;timestamp;temperature;humidity
45803;DHT22;31504;51.716;9.184;2022-09-11T00:02:07;22.40;63.40
45803;DHT22;31504;51.716;9.184;2022-09-11T00:05:08;22.40;63.40
45803;DHT22;31504;51.716;9.184;2022-09-11T00:08:11;22.40;63.30
45803;DHT22;31504;51.716;9.184;2022-09-11T00:11:17;22.40;63.30
45803;DHT22;31504;51.716;9.184;2022-09-11T00:14:18;22.40;63.20
45803;DHT22;31504;51.716;9.184;2022-09-11T00:17:19;22.40;63.20
45803;DHT22;31504;51.716;9.184;2022-09-11T00:20:21;22.40;63.20
45803;DHT22;31504;51.716;9.184;2022-09-11T00:23:23;22.40;63.20
45803;DHT22;31504;51.716;9.184;2022-09-11T00:26:25;22.40;63.10
45803;DHT22;31504;51.716;9.184;2022-09-11T00:29:26;22.40;63.10
45803;DHT22;31504;51.716;9.184;2022-09-11T00:32:26;22.40;63.00
45803;DHT22;31504;51.716;9.184;2022-09-11T00:35:27;22.40;62.90
45803;DHT22;31504;51.716;9.184;2022-09-11T00:38:31;22.40;62.90
45803;DHT22;31504;51.716;9.184;2022-09-11T00:41:34;22.40;62.90
45803;DHT22;31504;51.716;9.184;2022-09-11T00:47:37;22.40;62.80
45803;DHT22;31504;51.716;9.184;2022-09-11T00:50:37;22.40;62.80
45803;DHT22;31504;51.716;9.184;2022-09-11T00:53:38;22.40;62.70
45803;DHT22;31504;51.716;9.184;2022-09-11T00:56:40;22.40;62.70
45803;DHT22;31504;51.716;9.184;2022-09-11T00:59:42;22.40;62.60
45803;DHT22;31504;51.716;9.184;2022-09-11T01:02:47;22.40;62.60
45803;DHT22;31504;51.716;9.184;2022-09-11T01:05:49;22.40;62.50
45803;DHT22;31504;51.716;9.184;2022-09-11T01:08:50;22.40;62.50
45803;DHT22;31504;51.716;9.184;2022-09-11T01:12:05;22.40;62.40
45803;DHT22;31504;51.716;9.184;2022-09-11T01:15:21;22.40;62.50
45803;DHT22;31504;51.716;9.184;2022-09-11T01:18:30;22.40;62.40
45803;DHT22;31504;51.716;9.184;2022-09-11T01:24:58;22.40;62.40
45803;DHT22;31504;51.716;9.184;2022-09-11T01:28:14;22.40;62.30
45803;DHT22;31504;51.716;9.184;2022-09-11T01:31:23;22.40;62.20
45803;DHT22;31504;51.716;9.184;2022-09-11T01:34:35;22.40;62.30
45803;DHT22;31504;51.716;9.184;2022-09-11T01:37:42;22.40;62.90
45803;DHT22;31504;51.716;9.184;2022-09-11T01:40:50;22.40;62.20
45803;DHT22;31504;51.716;9.184;2022-09-11T01:44:09;22.40;62.10
45803;DHT22;31504;51.716;9.184;2022-09-11T01:47:11;22.40;62.10
45803;DHT22;31504;51.716;9.184;2022-09-11T01:50:13;22.40;61.90
45803;DHT22;31504;51.716;9.184;2022-09-11T01:53:16;22.40;61.90
45803;DHT22;31504;51.716;9.184;2022-09-11T01:56:22;22.40;61.90
45803;DHT22;31504;51.716;9.184;2022-09-11T01:59:30;22.40;61.90
45803;DHT22;31504;51.716;9.184;2022-09-11T02:02:37;22.40;61.80
45803;DHT22;31504;51.716;9.184;2022-09-11T02:06:12;22.40;61.80
45803;DHT22;31504;51.716;9.184;2022-09-11T02:09:16;22.40;61.70
45803;DHT22;31504;51.716;9.184;2022-09-11T02:12:23;22.40;61.90
45803;DHT22;31504;51.716;9.184;2022-09-11T02:15:29;22.40;61.70
45803;DHT22;31504;51.716;9.184;2022-09-11T02:18:44;22.40;61.70
45803;DHT22;31504;51.716;9.184;2022-09-11T02:21:47;22.40;61.60
45803;DHT22;31504;51.716;9.184;2022-09-11T02:24:48;22.40;61.60
45803;DHT22;31504;51.716;9.184;2022-09-11T02:27:49;22.40;61.50
45803;DHT22;31504;51.716;9.184;2022-09-11T02:30:49;22.40;61.50
45803;DHT22;31504;51.716;9.184;2022-09-11T02:33:50;22.40;61.50
45803;DHT22;31504;51.716;9.184;2022-09-11T02:37:23;22.40;61.40
45803;DHT22;31504;51.716;9.184;2022-09-11T02:40:38;22.40;61.40
45803;DHT22;31504;51.716;9.184;2022-09-11T02:47:41;22.40;61.30
45803;DHT22;31504;51.716;9.184;2022-09-11T02:58:07;22.40;61.20
45803;DHT22;31504;51.716;9.184;2022-09-11T03:01:09;22.40;61.10
45803;DHT22;31504;51.716;9.184;2022-09-11T03:04:11;22.40;61.00
45803;DHT22;31504;51.716;9.184;2022-09-11T03:07:11;22.40;61.00
45803;DHT22;31504;51.716;9.184;2022-09-11T03:10:11;22.30;60.90
45803;DHT22;31504;51.716;9.184;2022-09-11T03:13:13;22.30;60.90
45803;DHT22;31504;51.716;9.184;2022-09-11T03:16:14;22.40;60.90
45803;DHT22;31504;51.716;9.184;2022-09-11T03:19:14;22.40;60.80
45803;DHT22;31504;51.716;9.184;2022-09-11T03:22:15;22.40;60.80
45803;DHT22;31504;51.716;9.184;2022-09-11T03:25:15;22.30;60.70
45803;DHT22;31504;51.716;9.184;2022-09-11T03:28:16;22.40;60.80
45803;DHT22;31504;51.716;9.184;2022-09-11T03:31:16;22.30;60.70
45803;DHT22;31504;51.716;9.184;2022-09-11T03:34:16;22.30;60.70
45803;DHT22;31504;51.716;9.184;2022-09-11T03:37:17;22.40;60.70
45803;DHT22;31504;51.716;9.184;2022-09-11T03:40:18;22.30;60.70
45803;DHT22;31504;51.716;9.184;2022-09-11T03:43:20;22.40;60.70
45803;DHT22;31504;51.716;9.184;2022-09-11T03:46:20;22.30;60.60
45803;DHT22;31504;51.716;9.184;2022-09-11T03:49:21;22.40;60.70
45803;DHT22;31504;51.716;9.184;2022-09-11T03:52:21;22.40;60.60
45803;DHT22;31504;51.716;9.184;2022-09-11T03:55:22;22.30;60.60
45803;DHT22;31504;51.716;9.184;2022-09-11T03:58:23;22.30;60.60
45803;DHT22;31504;51.716;9.184;2022-09-11T04:01:23;22.40;60.60
45803;DHT22;31504;51.716;9.184;2022-09-11T04:04:24;22.40;60.60
45803;DHT22;31504;51.716;9.184;2022-09-11T04:07:24;22.40;60.60
45803;DHT22;31504;51.716;9.184;2022-09-11T04:10:25;22.30;60.50
45803;DHT22;31504;51.716;9.184;2022-09-11T04:13:34;22.40;60.70
45803;DHT22;31504;51.716;9.184;2022-09-11T04:16:35;22.30;60.60
45803;DHT22;31504;51.716;9.184;2022-09-11T04:19:35;22.40;60.60
45803;DHT22;31504;51.716;9.184;2022-09-11T04:22:36;22.40;60.70
45803;DHT22;31504;51.716;9.184;2022-09-11T04:25:37;22.30;60.60
45803;DHT22;31504;51.716;9.184;2022-09-11T04:28:38;22.40;60.70
45803;DHT22;31504;51.716;9.184;2022-09-11T04:31:39;22.30;60.60
45803;DHT22;31504;51.716;9.184;2022-09-11T04:34:40;22.40;60.70
45803;DHT22;31504;51.716;9.184;2022-09-11T04:37:41;22.40;60.70
45803;DHT22;31504;51.716;9.184;2022-09-11T04:40:41;22.30;60.60
45803;DHT22;31504;51.716;9.184;2022-09-11T04:43:42;22.30;60.70
45803;DHT22;31504;51.716;9.184;2022-09-11T04:46:42;22.30;60.70
45803;DHT22;31504;51.716;9.184;2022-09-11T04:49:44;22.40;60.80
45803;DHT22;31504;51.716;9.184;2022-09-11T04:52:46;22.30;60.70
45803;DHT22;31504;51.716;9.184;2022-09-11T04:55:46;22.40;60.80
45803;DHT22;31504;51.716;9.184;2022-09-11T04:58:54;22.30;60.80
45803;DHT22;31504;51.716;9.184;2022-09-11T05:01:55;22.30;60.80
45803;DHT22;31504;51.716;9.184;2022-09-11T05:04:55;22.40;60.80
45803;DHT22;31504;51.716;9.184;2022-09-11T05:07:57;22.30;60.80
45803;DHT22;31504;51.716;9.184;2022-09-11T05:11:02;22.40;60.80
45803;DHT22;31504;51.716;9.184;2022-09-11T05:14:04;22.40;60.90
45803;DHT22;31504;51.716;9.184;2022-09-11T05:17:05;22.30;60.80
45803;DHT22;31504;51.716;9.184;2022-09-11T05:20:06;22.40;60.90
45803;DHT22;31504;51.716;9.184;2022-09-11T05:23:06;22.40;60.90
45803;DHT22;31504;51.716;9.184;2022-09-11T05:26:13;22.40;60.90
45803;DHT22;31504;51.716;9.184;2022-09-11T05:29:14;22.40;60.90
45803;DHT22;31504;51.716;9.184;2022-09-11T05:32:15;22.40;61.00
45803;DHT22;31504;51.716;9.184;2022-09-11T05:35:15;22.30;61.00
45803;DHT22;31504;51.716;9.184;2022-09-11T05:38:17;22.30;60.90
45803;DHT22;31504;51.716;9.184;2022-09-11T05:41:19;22.30;60.90
45803;DHT22;31504;51.716;9.184;2022-09-11T05:44:19;22.30;61.00
45803;DHT22;31504;51.716;9.184;2022-09-11T05:47:20;22.40;61.00
45803;DHT22;31504;51.716;9.184;2022-09-11T05:50:20;22.40;61.10
45803;DHT22;31504;51.716;9.184;2022-09-11T05:53:22;22.40;61.10
45803;DHT22;31504;51.716;9.184;2022-09-11T05:56:24;22.40;61.00
45803;DHT22;31504;51.716;9.184;2022-09-11T05:59:25;22.30;60.90
45803;DHT22;31504;51.716;9.184;2022-09-11T06:02:26;22.40;61.10
45803;DHT22;31504;51.716;9.184;2022-09-11T06:05:27;22.40;61.10
45803;DHT22;31504;51.716;9.184;2022-09-11T06:08:29;22.40;61.10
45803;DHT22;31504;51.716;9.184;2022-09-11T06:11:30;22.40;61.00
45803;DHT22;31504;51.716;9.184;2022-09-11T06:14:30;22.40;61.10
45803;DHT22;31504;51.716;9.184;2022-09-11T06:17:31;22.40;61.10
45803;DHT22;31504;51.716;9.184;2022-09-11T06:20:32;22.40;61.10
45803;DHT22;31504;51.716;9.184;2022-09-11T06:23:33;22.40;61.10
45803;DHT22;31504;51.716;9.184;2022-09-11T06:26:34;22.40;61.00
45803;DHT22;31504;51.716;9.184;2022-09-11T06:29:35;22.40;61.10
45803;DHT22;31504;51.716;9.184;2022-09-11T06:32:35;22.40;61.10
45803;DHT22;31504;51.716;9.184;2022-09-11T06:35:35;22.40;61.10
45803;DHT22;31504;51.716;9.184;2022-09-11T06:38:36;22.40;61.10
45803;DHT22;31504;51.716;9.184;2022-09-11T06:41:37;22.40;61.10
45803;DHT22;31504;51.716;9.184;2022-09-11T06:44:38;22.40;61.10
45803;DHT22;31504;51.716;9.184;2022-09-11T06:47:41;22.40;61.00
45803;DHT22;31504;51.716;9.184;2022-09-11T06:50:41;22.40;61.00
45803;DHT22;31504;51.716;9.184;2022-09-11T06:53:42;22.40;61.10
45803;DHT22;31504;51.716;9.184;2022-09-11T06:56:43;22.40;61.20
45803;DHT22;31504;51.716;9.184;2022-09-11T06:59:44;22.40;61.10
45803;DHT22;31504;51.716;9.184;2022-09-11T07:02:45;22.40;61.10
45803;DHT22;31504;51.716;9.184;2022-09-11T07:05:46;22.40;61.20
45803;DHT22;31504;51.716;9.184;2022-09-11T07:08:51;22.30;61.30
45803;DHT22;31504;51.716;9.184;2022-09-11T07:11:52;22.20;61.40
45803;DHT22;31504;51.716;9.184;2022-09-11T07:14:53;22.20;61.60
45803;DHT22;31504;51.716;9.184;2022-09-11T07:17:53;22.20;61.70
45803;DHT22;31504;51.716;9.184;2022-09-11T07:20:54;22.20;61.80
45803;DHT22;31504;51.716;9.184;2022-09-11T07:23:57;22.20;62.10
45803;DHT22;31504;51.716;9.184;2022-09-11T07:26:57;22.10;62.20
45803;DHT22;31504;51.716;9.184;2022-09-11T07:29:58;22.10;62.40
45803;DHT22;31504;51.716;9.184;2022-09-11T07:32:58;22.00;62.80
45803;DHT22;31504;51.716;9.184;2022-09-11T07:35:59;22.00;62.80
45803;DHT22;31504;51.716;9.184;2022-09-11T07:39:00;22.10;62.90
45803;DHT22;31504;51.716;9.184;2022-09-11T07:42:01;22.10;63.00
45803;DHT22;31504;51.716;9.184;2022-09-11T07:45:01;22.10;63.10
45803;DHT22;31504;51.716;9.184;2022-09-11T07:48:02;22.10;63.00
45803;DHT22;31504;51.716;9.184;2022-09-11T07:51:04;22.10;63.10
45803;DHT22;31504;51.716;9.184;2022-09-11T07:54:05;22.10;63.30
45803;DHT22;31504;51.716;9.184;2022-09-11T07:57:06;22.10;63.40
45803;DHT22;31504;51.716;9.184;2022-09-11T08:00:07;22.10;63.50
45803;DHT22;31504;51.716;9.184;2022-09-11T08:03:08;22.10;63.50
45803;DHT22;31504;51.716;9.184;2022-09-11T08:06:16;22.10;63.50
45803;DHT22;31504;51.716;9.184;2022-09-11T08:09:17;22.10;63.50
45803;DHT22;31504;51.716;9.184;2022-09-11T08:12:19;22.10;63.50
45803;DHT22;31504;51.716;9.184;2022-09-11T08:15:19;22.10;63.50
45803;DHT22;31504;51.716;9.184;2022-09-11T08:18:21;22.10;63.50
45803;DHT22;31504;51.716;9.184;2022-09-11T08:21:22;22.10;63.70
45803;DHT22;31504;51.716;9.184;2022-09-11T08:24:23;22.10;63.70
45803;DHT22;31504;51.716;9.184;2022-09-11T08:27:23;22.10;64.00
45803;DHT22;31504;51.716;9.184;2022-09-11T08:30:24;22.10;64.30
45803;DHT22;31504;51.716;9.184;2022-09-11T08:33:24;22.10;64.60
45803;DHT22;31504;51.716;9.184;2022-09-11T08:36:25;22.00;64.60
45803;DHT22;31504;51.716;9.184;2022-09-11T08:39:26;22.00;65.10
45803;DHT22;31504;51.716;9.184;2022-09-11T08:42:27;22.00;65.20
45803;DHT22;31504;51.716;9.184;2022-09-11T08:45:33;21.90;65.30
45803;DHT22;31504;51.716;9.184;2022-09-11T08:49:07;21.90;65.40
45803;DHT22;31504;51.716;9.184;2022-09-11T08:52:03;21.90;65.30
45803;DHT22;31504;51.716;9.184;2022-09-11T08:55:08;22.00;65.20
45803;DHT22;31504;51.716;9.184;2022-09-11T09:04:40;22.00;65.00
45803;DHT22;31504;51.716;9.184;2022-09-11T09:18:13;21.90;65.00
45803;DHT22;31504;51.716;9.184;2022-09-11T09:21:31;21.90;65.00
45803;DHT22;31504;51.716;9.184;2022-09-11T09:24:47;21.80;64.90
45803;DHT22;31504;51.716;9.184;2022-09-11T09:27:56;21.80;65.00
45803;DHT22;31504;51.716;9.184;2022-09-11T09:31:03;21.90;65.00
45803;DHT22;31504;51.716;9.184;2022-09-11T09:34:17;21.80;65.10
45803;DHT22;31504;51.716;9.184;2022-09-11T09:37:23;21.80;65.20
45803;DHT22;31504;51.716;9.184;2022-09-11T09:40:26;21.80;65.10
45803;DHT22;31504;51.716;9.184;2022-09-11T09:46:53;21.80;64.90
45803;DHT22;31504;51.716;9.184;2022-09-11T09:49:57;21.80;64.80
45803;DHT22;31504;51.716;9.184;2022-09-11T09:53:07;21.80;64.60
45803;DHT22;31504;51.716;9.184;2022-09-11T09:56:13;21.80;64.60
45803;DHT22;31504;51.716;9.184;2022-09-11T09:59:21;21.80;64.60
45803;DHT22;31504;51.716;9.184;2022-09-11T10:05:44;21.80;64.60
45803;DHT22;31504;51.716;9.184;2022-09-11T10:08:46;21.80;64.60
45803;DHT22;31504;51.716;9.184;2022-09-11T10:12:00;21.80;64.60
45803;DHT22;31504;51.716;9.184;2022-09-11T10:15:02;21.90;64.50
45803;DHT22;31504;51.716;9.184;2022-09-11T10:21:27;21.90;64.50
45803;DHT22;31504;51.716;9.184;2022-09-11T10:24:29;21.90;64.60
45803;DHT22;31504;51.716;9.184;2022-09-11T10:27:32;21.90;64.50
45803;DHT22;31504;51.716;9.184;2022-09-11T10:30:37;21.90;64.50
45803;DHT22;31504;51.716;9.184;2022-09-11T10:33:39;21.90;64.40
45803;DHT22;31504;51.716;9.184;2022-09-11T10:36:54;22.00;64.50
45803;DHT22;31504;51.716;9.184;2022-09-11T10:40:06;22.00;64.40
45803;DHT22;31504;51.716;9.184;2022-09-11T10:43:25;21.90;64.30
45803;DHT22;31504;51.716;9.184;2022-09-11T10:49:31;22.00;64.50
45803;DHT22;31504;51.716;9.184;2022-09-11T10:53:30;21.90;64.50
45803;DHT22;31504;51.716;9.184;2022-09-11T10:56:06;22.00;64.50
45803;DHT22;31504;51.716;9.184;2022-09-11T10:59:14;21.90;64.50
45803;DHT22;31504;51.716;9.184;2022-09-11T11:02:27;22.00;64.50
45803;DHT22;31504;51.716;9.184;2022-09-11T11:08:46;22.00;64.30
45803;DHT22;31504;51.716;9.184;2022-09-11T11:12:19;22.00;64.20
45803;DHT22;31504;51.716;9.184;2022-09-11T11:15:29;22.00;64.00
45803;DHT22;31504;51.716;9.184;2022-09-11T11:21:56;22.00;64.00
45803;DHT22;31504;51.716;9.184;2022-09-11T11:25:15;22.00;64.00
45803;DHT22;31504;51.716;9.184;2022-09-11T11:28:33;22.00;64.00
45803;DHT22;31504;51.716;9.184;2022-09-11T11:38:21;22.00;63.70
45803;DHT22;31504;51.716;9.184;2022-09-11T11:41:28;22.00;63.70
45803;DHT22;31504;51.716;9.184;2022-09-11T11:44:41;22.00;63.60
45803;DHT22;31504;51.716;9.184;2022-09-11T11:47:45;22.00;63.50
45803;DHT22;31504;51.716;9.184;2022-09-11T11:50:51;22.00;63.50
45803;DHT22;31504;51.716;9.184;2022-09-11T11:54:16;22.00;63.50
45803;DHT22;31504;51.716;9.184;2022-09-11T11:57:20;22.00;63.40
45803;DHT22;31504;51.716;9.184;2022-09-11T12:00:22;22.00;63.40
45803;DHT22;31504;51.716;9.184;2022-09-11T12:06:29;22.00;63.20
45803;DHT22;31504;51.716;9.184;2022-09-11T12:09:30;22.00;63.10
45803;DHT22;31504;51.716;9.184;2022-09-11T12:12:33;22.00;63.00
45803;DHT22;31504;51.716;9.184;2022-09-11T12:15:34;22.00;63.00
45803;DHT22;31504;51.716;9.184;2022-09-11T12:18:37;22.00;62.90
45803;DHT22;31504;51.716;9.184;2022-09-11T12:22:31;22.00;62.90
45803;DHT22;31504;51.716;9.184;2022-09-11T12:25:01;22.00;62.90
45803;DHT22;31504;51.716;9.184;2022-09-11T12:28:23;22.00;62.80
45803;DHT22;31504;51.716;9.184;2022-09-11T12:31:23;22.00;62.90
45803;DHT22;31504;51.716;9.184;2022-09-11T12:37:54;22.10;63.10
45803;DHT22;31504;51.716;9.184;2022-09-11T12:40:59;22.10;63.10
45803;DHT22;31504;51.716;9.184;2022-09-11T12:44:27;22.00;63.10
45803;DHT22;31504;51.716;9.184;2022-09-11T12:47:35;22.00;63.10
45803;DHT22;31504;51.716;9.184;2022-09-11T12:50:37;22.00;63.10
45803;DHT22;31504;51.716;9.184;2022-09-11T12:53:43;22.10;63.20
45803;DHT22;31504;51.716;9.184;2022-09-11T12:56:51;22.00;63.20
45803;DHT22;31504;51.716;9.184;2022-09-11T13:00:05;22.00;63.10
45803;DHT22;31504;51.716;9.184;2022-09-11T13:03:17;22.00;63.20
45803;DHT22;31504;51.716;9.184;2022-09-11T13:06:19;22.00;63.20
45803;DHT22;31504;51.716;9.184;2022-09-11T13:09:27;22.00;63.10
45803;DHT22;31504;51.716;9.184;2022-09-11T13:18:33;22.10;63.10
45803;DHT22;31504;51.716;9.184;2022-09-11T13:21:39;22.10;63.10
45803;DHT22;31504;51.716;9.184;2022-09-11T13:24:41;22.10;63.20
45803;DHT22;31504;51.716;9.184;2022-09-11T13:27:52;22.10;63.30
45803;DHT22;31504;51.716;9.184;2022-09-11T13:30:59;22.10;63.20
45803;DHT22;31504;51.716;9.184;2022-09-11T13:34:06;22.10;63.10
45803;DHT22;31504;51.716;9.184;2022-09-11T13:37:15;22.10;63.10
45803;DHT22;31504;51.716;9.184;2022-09-11T13:40:40;22.10;63.00
45803;DHT22;31504;51.716;9.184;2022-09-11T13:43:49;22.10;63.60
45803;DHT22;31504;51.716;9.184;2022-09-11T13:46:51;22.10;63.00
45803;DHT22;31504;51.716;9.184;2022-09-11T13:49:54;22.10;63.00
45803;DHT22;31504;51.716;9.184;2022-09-11T13:52:56;22.10;63.00
45803;DHT22;31504;51.716;9.184;2022-09-11T13:55:56;22.10;63.10
45803;DHT22;31504;51.716;9.184;2022-09-11T13:58:57;22.10;63.10
45803;DHT22;31504;51.716;9.184;2022-09-11T14:01:58;22.10;63.10
45803;DHT22;31504;51.716;9.184;2022-09-11T14:05:08;22.10;63.10
45803;DHT22;31504;51.716;9.184;2022-09-11T14:11:28;22.10;63.30
45803;DHT22;31504;51.716;9.184;2022-09-11T14:14:30;22.10;63.20
45803;DHT22;31504;51.716;9.184;2022-09-11T14:17:32;22.10;63.20
45803;DHT22;31504;51.716;9.184;2022-09-11T14:20:33;22.10;63.10
45803;DHT22;31504;51.716;9.184;2022-09-11T14:23:41;22.10;63.00
45803;DHT22;31504;51.716;9.184;2022-09-11T14:26:42;22.10;63.00
45803;DHT22;31504;51.716;9.184;2022-09-11T14:29:51;22.10;63.00
45803;DHT22;31504;51.716;9.184;2022-09-11T14:33:17;22.10;62.90
45803;DHT22;31504;51.716;9.184;2022-09-11T14:36:21;22.10;62.90
45803;DHT22;31504;51.716;9.184;2022-09-11T14:39:35;22.10;62.90
45803;DHT22;31504;51.716;9.184;2022-09-11T14:42:36;22.10;63.00
45803;DHT22;31504;51.716;9.184;2022-09-11T14:45:37;22.10;63.00
45803;DHT22;31504;51.716;9.184;2022-09-11T14:48:37;22.10;62.90
45803;DHT22;31504;51.716;9.184;2022-09-11T14:51:39;22.10;62.80
45803;DHT22;31504;51.716;9.184;2022-09-11T14:54:40;22.20;62.90
45803;DHT22;31504;51.716;9.184;2022-09-11T14:57:40;22.10;62.80
45803;DHT22;31504;51.716;9.184;2022-09-11T15:00:41;22.20;62.90
45803;DHT22;31504;51.716;9.184;2022-09-11T15:03:42;22.20;62.80
45803;DHT22;31504;51.716;9.184;2022-09-11T15:06:42;22.20;62.80
45803;DHT22;31504;51.716;9.184;2022-09-11T15:09:44;22.20;62.70
45803;DHT22;31504;51.716;9.184;2022-09-11T15:12:44;22.20;62.70
45803;DHT22;31504;51.716;9.184;2022-09-11T15:15:46;22.20;62.70
45803;DHT22;31504;51.716;9.184;2022-09-11T15:18:47;22.20;62.70
45803;DHT22;31504;51.716;9.184;2022-09-11T15:21:48;22.20;62.70
45803;DHT22;31504;51.716;9.184;2022-09-11T15:24:48;22.20;62.60
45803;DHT22;31504;51.716;9.184;2022-09-11T15:27:51;22.20;62.60
45803;DHT22;31504;51.716;9.184;2022-09-11T15:30:55;22.20;62.60
45803;DHT22;31504;51.716;9.184;2022-09-11T15:33:56;22.20;62.50
45803;DHT22;31504;51.716;9.184;2022-09-11T15:36:56;22.20;62.50
45803;DHT22;31504;51.716;9.184;2022-09-11T15:39:57;22.20;62.40
45803;DHT22;31504;51.716;9.184;2022-09-11T15:42:58;22.20;62.40
45803;DHT22;31504;51.716;9.184;2022-09-11T15:45:58;22.20;62.30
45803;DHT22;31504;51.716;9.184;2022-09-11T15:48:59;22.30;62.40
45803;DHT22;31504;51.716;9.184;2022-09-11T15:52:00;22.20;62.30
45803;DHT22;31504;51.716;9.184;2022-09-11T15:55:02;22.20;62.30
45803;DHT22;31504;51.716;9.184;2022-09-11T15:58:03;22.20;62.20
45803;DHT22;31504;51.716;9.184;2022-09-11T16:01:05;22.30;62.30
45803;DHT22;31504;51.716;9.184;2022-09-11T16:04:07;22.30;62.20
45803;DHT22;31504;51.716;9.184;2022-09-11T16:07:08;22.20;62.20
45803;DHT22;31504;51.716;9.184;2022-09-11T16:10:09;22.30;62.20
45803;DHT22;31504;51.716;9.184;2022-09-11T16:13:10;22.30;62.20
45803;DHT22;31504;51.716;9.184;2022-09-11T16:16:11;22.20;62.10
45803;DHT22;31504;51.716;9.184;2022-09-11T16:19:13;22.20;62.10
45803;DHT22;31504;51.716;9.184;2022-09-11T16:22:13;22.20;62.10
45803;DHT22;31504;51.716;9.184;2022-09-11T16:25:14;22.20;62.10
45803;DHT22;31504;51.716;9.184;2022-09-11T16:28:15;22.30;62.10
45803;DHT22;31504;51.716;9.184;2022-09-11T16:31:15;22.30;62.10
45803;DHT22;31504;51.716;9.184;2022-09-11T16:34:16;22.30;62.00
45803;DHT22;31504;51.716;9.184;2022-09-11T16:37:17;22.30;62.00
45803;DHT22;31504;51.716;9.184;2022-09-11T16:40:17;22.20;61.90
45803;DHT22;31504;51.716;9.184;2022-09-11T16:43:18;22.20;61.80
45803;DHT22;31504;51.716;9.184;2022-09-11T16:46:21;22.20;61.80
45803;DHT22;31504;51.716;9.184;2022-09-11T16:49:22;22.20;61.80
45803;DHT22;31504;51.716;9.184;2022-09-11T16:52:23;22.20;61.70
45803;DHT22;31504;51.716;9.184;2022-09-11T16:55:23;22.20;61.70
45803;DHT22;31504;51.716;9.184;2022-09-11T16:58:24;22.20;61.60
45803;DHT22;31504;51.716;9.184;2022-09-11T17:01:26;22.20;61.60
45803;DHT22;31504;51.716;9.184;2022-09-11T17:04:27;22.30;61.70
45803;DHT22;31504;51.716;9.184;2022-09-11T17:07:27;22.30;61.70
45803;DHT22;31504;51.716;9.184;2022-09-11T17:10:28;22.20;61.60
45803;DHT22;31504;51.716;9.184;2022-09-11T17:13:29;22.20;61.60
45803;DHT22;31504;51.716;9.184;2022-09-11T17:16:31;22.20;61.60
45803;DHT22;31504;51.716;9.184;2022-09-11T17:19:33;22.20;61.50
45803;DHT22;31504;51.716;9.184;2022-09-11T17:22:33;22.20;61.50
45803;DHT22;31504;51.716;9.184;2022-09-11T17:25:39;22.30;61.60
45803;DHT22;31504;51.716;9.184;2022-09-11T17:28:40;22.30;62.10
45803;DHT22;31504;51.716;9.184;2022-09-11T17:31:41;22.20;61.40
45803;DHT22;31504;51.716;9.184;2022-09-11T17:34:42;22.30;61.50
45803;DHT22;31504;51.716;9.184;2022-09-11T17:37:42;22.30;61.50
45803;DHT22;31504;51.716;9.184;2022-09-11T17:40:45;22.30;61.50
45803;DHT22;31504;51.716;9.184;2022-09-11T17:43:45;22.20;61.40
45803;DHT22;31504;51.716;9.184;2022-09-11T17:46:47;22.30;61.40
45803;DHT22;31504;51.716;9.184;2022-09-11T17:49:47;22.30;61.40
45803;DHT22;31504;51.716;9.184;2022-09-11T17:52:49;22.30;61.40
45803;DHT22;31504;51.716;9.184;2022-09-11T17:55:50;22.30;61.40
45803;DHT22;31504;51.716;9.184;2022-09-11T17:58:55;22.30;61.40
45803;DHT22;31504;51.716;9.184;2022-09-11T18:01:56;22.30;61.30
45803;DHT22;31504;51.716;9.184;2022-09-11T18:04:59;22.30;61.40
45803;DHT22;31504;51.716;9.184;2022-09-11T18:07:59;22.30;61.40
45803;DHT22;31504;51.716;9.184;2022-09-11T18:11:01;22.30;61.30
45803;DHT22;31504;51.716;9.184;2022-09-11T18:14:05;22.30;61.50
45803;DHT22;31504;51.716;9.184;2022-09-11T18:17:05;22.30;61.50
45803;DHT22;31504;51.716;9.184;2022-09-11T18:20:06;22.30;61.50
45803;DHT22;31504;51.716;9.184;2022-09-11T18:23:09;22.30;61.50
45803;DHT22;31504;51.716;9.184;2022-09-11T18:26:22;22.30;61.40
45803;DHT22;31504;51.716;9.184;2022-09-11T18:29:22;22.20;61.40
45803;DHT22;31504;51.716;9.184;2022-09-11T18:32:23;22.30;61.50
45803;DHT22;31504;51.716;9.184;2022-09-11T18:35:24;22.30;61.50
45803;DHT22;31504;51.716;9.184;2022-09-11T18:38:24;22.30;61.50
45803;DHT22;31504;51.716;9.184;2022-09-11T18:41:26;22.20;61.50
45803;DHT22;31504;51.716;9.184;2022-09-11T18:44:27;22.30;61.50
45803;DHT22;31504;51.716;9.184;2022-09-11T18:47:28;22.30;61.60
45803;DHT22;31504;51.716;9.184;2022-09-11T18:50:29;22.30;61.60
45803;DHT22;31504;51.716;9.184;2022-09-11T18:53:30;22.30;61.60
45803;DHT22;31504;51.716;9.184;2022-09-11T18:56:31;22.30;61.60
45803;DHT22;31504;51.716;9.184;2022-09-11T18:59:32;22.30;61.60
45803;DHT22;31504;51.716;9.184;2022-09-11T19:02:32;22.30;61.60
45803;DHT22;31504;51.716;9.184;2022-09-11T19:05:34;22.30;61.60
45803;DHT22;31504;51.716;9.184;2022-09-11T19:08:36;22.30;61.60
45803;DHT22;31504;51.716;9.184;2022-09-11T19:11:37;22.30;61.60
45803;DHT22;31504;51.716;9.184;2022-09-11T19:14:38;22.30;61.60
45803;DHT22;31504;51.716;9.184;2022-09-11T19:17:38;22.30;61.50
45803;DHT22;31504;51.716;9.184;2022-09-11T19:20:39;22.30;62.10
45803;DHT22;31504;51.716;9.184;2022-09-11T19:23:42;22.30;61.50
45803;DHT22;31504;51.716;9.184;2022-09-11T19:26:43;22.30;61.50
45803;DHT22;31504;51.716;9.184;2022-09-11T19:29:44;22.30;61.50
45803;DHT22;31504;51.716;9.184;2022-09-11T19:32:45;22.30;61.50
45803;DHT22;31504;51.716;9.184;2022-09-11T19:35:56;22.30;61.50
45803;DHT22;31504;51.716;9.184;2022-09-11T19:38:57;22.30;61.40
45803;DHT22;31504;51.716;9.184;2022-09-11T19:42:01;22.30;61.40
45803;DHT22;31504;51.716;9.184;2022-09-11T19:45:02;22.30;61.40
45803;DHT22;31504;51.716;9.184;2022-09-11T19:48:05;22.30;61.40
45803;DHT22;31504;51.716;9.184;2022-09-11T19:51:17;22.30;61.30
45803;DHT22;31504;51.716;9.184;2022-09-11T19:54:20;22.30;61.30
45803;DHT22;31504;51.716;9.184;2022-09-11T19:57:22;22.20;61.20
45803;DHT22;31504;51.716;9.184;2022-09-11T20:00:22;22.30;61.20
45803;DHT22;31504;51.716;9.184;2022-09-11T20:03:23;22.30;61.20
45803;DHT22;31504;51.716;9.184;2022-09-11T20:06:27;22.30;61.20
45803;DHT22;31504;51.716;9.184;2022-09-11T20:09:28;22.30;61.80
45803;DHT22;31504;51.716;9.184;2022-09-11T20:12:28;22.30;61.20
45803;DHT22;31504;51.716;9.184;2022-09-11T20:15:36;22.30;61.10
45803;DHT22;31504;51.716;9.184;2022-09-11T20:18:37;22.20;61.10
45803;DHT22;31504;51.716;9.184;2022-09-11T20:21:38;22.30;61.10
45803;DHT22;31504;51.716;9.184;2022-09-11T20:24:38;22.30;61.10
45803;DHT22;31504;51.716;9.184;2022-09-11T20:27:39;22.20;61.00
45803;DHT22;31504;51.716;9.184;2022-09-11T20:30:39;22.30;61.00
45803;DHT22;31504;51.716;9.184;2022-09-11T20:33:44;22.20;61.00
45803;DHT22;31504;51.716;9.184;2022-09-11T20:36:45;22.20;60.90